Observations for LUTON AIRPORT, United Kingdom (EGGW)

EGGW 250320Z AUTO 29009KT 9999 NCD 01/M01 Q1011 
EGGW 250250Z AUTO 29008KT 9999 NCD 01/M01 Q1011 
EGGW 250220Z AUTO 28008KT 9999 NCD 01/M01 Q1011 
EGGW 250150Z AUTO 27006KT 9999 NCD 00/M02 Q1011 
EGGW 250120Z AUTO 28007KT 9999 NCD 00/M01 Q1012 
EGGW 250050Z AUTO 27007KT 9999 SCT038 00/M02 Q1012  
EGGW 250020Z AUTO 26008KT 9999 FEW037 M00/M02 Q1012 
EGGW 242350Z AUTO 25006KT 9999 NCD M00/M02 Q1012
EGGW 242320Z AUTO 25005KT 9999 NCD 01/M01 Q1012 
EGGW 242250Z AUTO 26006KT 9999 NCD M00/M02 Q1012
EGGW 242220Z AUTO 27006KT 9999 NCD M00/M02 Q1012
EGGW 242150Z AUTO 25005KT 9999 NCD 01/M01 Q1012 
EGGW 242120Z AUTO 23005KT 9999 NCD 00/M01 Q1012 
EGGW 242050Z AUTO 20005KT 9999 NCD 00/M01 Q1012 
EGGW 242020Z AUTO 24005KT 9999 NCD M01/M02 Q1012
EGGW 241950Z AUTO 26005KT 9999 NCD 01/M01 Q1012 
EGGW 241920Z AUTO 26005KT 9999 NCD 00/M01 Q1012 
EGGW 241850Z AUTO 23004KT 9999 NCD 02/00 Q1012  
EGGW 241820Z AUTO 22003KT 9999 NCD 02/00 Q1012  
EGGW 241750Z AUTO 25003KT 9999 NCD 01/M01 Q1012 
EGGW 241720Z AUTO 23003KT 9999 NCD 02/00 Q1012  
EGGW 241650Z AUTO 26005KT 9999 NCD 01/M01 Q1012 
EGGW 241620Z AUTO 26005KT 9999 NCD 02/M00 Q1012 
EGGW 241550Z AUTO 26006KT 9999 NCD 03/M00 Q1011 
EGGW 241520Z AUTO 29005KT 9999 NCD 05/00 Q1011  
EGGW 241450Z AUTO 26005KT 9999 NCD 05/01 Q1011  
EGGW 241420Z AUTO 25005KT 9999 NCD 06/01 Q1011  
EGGW 241350Z AUTO VRB03KT 9999 NCD 07/01 Q1011  
EGGW 241320Z AUTO VRB03KT 9999 NCD 07/00 Q1011  
EGGW 241250Z AUTO 33005KT 290V010 9999 NCD 07/00 Q1011  
EGGW 241220Z AUTO 31005KT 9999 NCD 07/01 Q1011  
EGGW 241150Z AUTO 32007KT 9999 NCD 07/01 Q1011  
EGGW 241120Z AUTO 33006KT 310V020 9999 NCD 07/01 Q1011  
EGGW 241050Z AUTO 32007KT 9999 NCD 06/01 Q1011  
EGGW 241020Z AUTO 32006KT 9999 NCD 06/02 Q1011  
EGGW 240950Z AUTO 32007KT 280V340 9999 NCD 05/02 Q1010  
EGGW 240920Z AUTO 31007KT 9999 NCD 05/02 Q1010  
EGGW 240850Z AUTO 30007KT 9999 NCD 04/02 Q1009  
EGGW 240820Z AUTO 30006KT 280V350 9999 NCD 04/02 Q1009  
EGGW 240750Z AUTO 30007KT 9999 NCD 04/02 Q1009  
EGGW 240720Z AUTO 30007KT 9999 NCD 04/03 Q1008  
EGGW 240650Z AUTO 31007KT 9999 NCD 04/03 Q1008  
EGGW 240620Z AUTO 28006KT 9999 NCD 04/03 Q1008  
EGGW 240550Z AUTO 28007KT 9999 NCD 04/03 Q1007  
EGGW 240520Z AUTO 29006KT 9999 NCD 04/03 Q1007  
EGGW 240450Z AUTO 29007KT 9999 NCD 05/03 Q1007  
EGGW 240420Z AUTO 28006KT 9999 NCD 04/03 Q1006  
EGGW 240350Z AUTO 26006KT 9999 NCD 04/02 Q1006  
EGGW 240320Z AUTO 24006KT 9999 NCD 05/03 Q1006  
EGGW 240250Z AUTO 22004KT 9999 NCD 05/03 Q1006